Terminal Aerodrome Forecast
Issued by NWS Duluth, MN

Home | Current Version | Previous Version | Text Only | Print | Product List | Glossary On
Versions: 1 2 3 4 5 6 7 8 9 10 11 12 13 14 15 16 17 18 19 20 21 22 23 24 25 26 27 28 29 30 31
000
FTUS43 KDLH 181322 AAB
TAFDLH
TAF AMD
KDLH 181322Z 1813/1912 22012KT 4SM BR BKN005 OVC020
     FM181800 23011KT P6SM BKN040
     FM182100 23012KT P6SM -SN BKN015 OVC040
      TEMPO 1822/1902 2SM -SN
     FM190200 25011KT 6SM -SN OVC020
     FM190900 29014G22KT P6SM SCT020=

USA.gov is the U.S. government's official web portal to all federal, state and local government web resources and services.